sensor_id;sensor_type;location;lat;lon;timestamp;P1;durP1;ratioP1;P2;durP2;ratioP2
13202;SDS011;6666;51.626;7.530;2023-02-15T00:00:08;25.77;;;12.67;;
13202;SDS011;6666;51.626;7.530;2023-02-15T00:02:37;27.55;;;11.82;;
13202;SDS011;6666;51.626;7.530;2023-02-15T00:05:08;26.45;;;11.98;;
13202;SDS011;6666;51.626;7.530;2023-02-15T00:07:36;25.60;;;11.63;;
13202;SDS011;6666;51.626;7.530;2023-02-15T00:10:05;25.83;;;11.15;;
13202;SDS011;6666;51.626;7.530;2023-02-15T00:12:34;21.38;;;10.02;;
13202;SDS011;6666;51.626;7.530;2023-02-15T00:15:03;23.33;;;10.67;;
13202;SDS011;6666;51.626;7.530;2023-02-15T00:17:31;22.85;;;11.13;;
13202;SDS011;6666;51.626;7.530;2023-02-15T00:20:00;23.05;;;10.65;;
13202;SDS011;6666;51.626;7.530;2023-02-15T00:22:29;20.13;;;9.70;;
13202;SDS011;6666;51.626;7.530;2023-02-15T00:24:57;20.58;;;10.10;;
13202;SDS011;6666;51.626;7.530;2023-02-15T00:27:26;17.25;;;9.00;;
13202;SDS011;6666;51.626;7.530;2023-02-15T00:29:54;17.38;;;8.20;;
13202;SDS011;6666;51.626;7.530;2023-02-15T00:32:22;14.77;;;8.60;;
13202;SDS011;6666;51.626;7.530;2023-02-15T00:34:51;12.87;;;7.80;;
13202;SDS011;6666;51.626;7.530;2023-02-15T00:37:19;17.67;;;8.00;;
13202;SDS011;6666;51.626;7.530;2023-02-15T00:39:49;14.30;;;7.60;;
13202;SDS011;6666;51.626;7.530;2023-02-15T00:42:17;12.67;;;6.77;;
13202;SDS011;6666;51.626;7.530;2023-02-15T00:44:45;14.33;;;7.07;;
13202;SDS011;6666;51.626;7.530;2023-02-15T00:47:13;14.40;;;7.63;;
13202;SDS011;6666;51.626;7.530;2023-02-15T00:49:42;18.08;;;7.55;;
13202;SDS011;6666;51.626;7.530;2023-02-15T00:52:10;12.43;;;7.10;;
13202;SDS011;6666;51.626;7.530;2023-02-15T00:54:39;11.82;;;6.60;;
13202;SDS011;6666;51.626;7.530;2023-02-15T00:57:08;11.97;;;6.73;;
13202;SDS011;6666;51.626;7.530;2023-02-15T00:59:36;11.93;;;6.40;;
13202;SDS011;6666;51.626;7.530;2023-02-15T01:02:05;12.35;;;6.90;;
13202;SDS011;6666;51.626;7.530;2023-02-15T01:04:33;15.63;;;7.00;;
13202;SDS011;6666;51.626;7.530;2023-02-15T01:07:01;11.98;;;6.85;;
13202;SDS011;6666;51.626;7.530;2023-02-15T01:09:32;13.35;;;6.90;;
13202;SDS011;6666;51.626;7.530;2023-02-15T01:12:02;17.20;;;6.72;;
13202;SDS011;6666;51.626;7.530;2023-02-15T01:14:32;13.27;;;6.80;;
13202;SDS011;6666;51.626;7.530;2023-02-15T01:17:00;13.80;;;6.70;;
13202;SDS011;6666;51.626;7.530;2023-02-15T01:19:29;12.30;;;6.82;;
13202;SDS011;6666;51.626;7.530;2023-02-15T01:21:58;12.55;;;6.15;;
13202;SDS011;6666;51.626;7.530;2023-02-15T01:24:26;15.73;;;7.70;;
13202;SDS011;6666;51.626;7.530;2023-02-15T01:26:55;12.30;;;6.47;;
13202;SDS011;6666;51.626;7.530;2023-02-15T01:29:25;11.20;;;6.32;;
13202;SDS011;6666;51.626;7.530;2023-02-15T01:31:55;13.70;;;6.82;;
13202;SDS011;6666;51.626;7.530;2023-02-15T01:34:24;12.30;;;6.65;;
13202;SDS011;6666;51.626;7.530;2023-02-15T01:36:52;14.18;;;6.65;;
13202;SDS011;6666;51.626;7.530;2023-02-15T01:39:20;14.07;;;7.10;;
13202;SDS011;6666;51.626;7.530;2023-02-15T01:41:50;11.88;;;5.93;;
13202;SDS011;6666;51.626;7.530;2023-02-15T01:47:18;12.82;;;7.10;;
13202;SDS011;6666;51.626;7.530;2023-02-15T01:49:53;17.52;;;7.40;;
13202;SDS011;6666;51.626;7.530;2023-02-15T01:52:27;12.73;;;7.70;;
13202;SDS011;6666;51.626;7.530;2023-02-15T01:54:56;12.80;;;6.55;;
13202;SDS011;6666;51.626;7.530;2023-02-15T01:57:25;14.77;;;6.55;;
13202;SDS011;6666;51.626;7.530;2023-02-15T01:59:56;12.32;;;6.50;;
13202;SDS011;6666;51.626;7.530;2023-02-15T02:02:39;12.68;;;7.43;;
13202;SDS011;6666;51.626;7.530;2023-02-15T02:05:08;13.15;;;6.60;;
13202;SDS011;6666;51.626;7.530;2023-02-15T02:07:37;12.25;;;7.05;;
13202;SDS011;6666;51.626;7.530;2023-02-15T02:10:10;14.23;;;7.45;;
13202;SDS011;6666;51.626;7.530;2023-02-15T02:12:39;13.77;;;7.07;;
13202;SDS011;6666;51.626;7.530;2023-02-15T02:15:10;12.80;;;7.55;;
13202;SDS011;6666;51.626;7.530;2023-02-15T02:17:42;14.15;;;7.40;;
13202;SDS011;6666;51.626;7.530;2023-02-15T02:23:38;15.48;;;7.10;;
13202;SDS011;6666;51.626;7.530;2023-02-15T02:26:32;14.30;;;7.18;;
13202;SDS011;6666;51.626;7.530;2023-02-15T02:35:47;14.80;;;7.30;;
13202;SDS011;6666;51.626;7.530;2023-02-15T02:38:23;12.32;;;7.07;;
13202;SDS011;6666;51.626;7.530;2023-02-15T02:40:58;11.97;;;6.97;;
13202;SDS011;6666;51.626;7.530;2023-02-15T02:43:35;14.80;;;6.70;;
13202;SDS011;6666;51.626;7.530;2023-02-15T02:46:12;14.10;;;6.90;;
13202;SDS011;6666;51.626;7.530;2023-02-15T02:48:45;17.27;;;7.43;;
13202;SDS011;6666;51.626;7.530;2023-02-15T02:51:17;15.27;;;7.10;;
13202;SDS011;6666;51.626;7.530;2023-02-15T02:53:50;13.45;;;7.10;;
13202;SDS011;6666;51.626;7.530;2023-02-15T02:56:21;13.10;;;7.20;;
13202;SDS011;6666;51.626;7.530;2023-02-15T02:58:55;14.25;;;6.60;;
13202;SDS011;6666;51.626;7.530;2023-02-15T03:01:29;13.10;;;7.00;;
13202;SDS011;6666;51.626;7.530;2023-02-15T03:04:03;17.55;;;7.70;;
13202;SDS011;6666;51.626;7.530;2023-02-15T03:06:40;13.45;;;7.15;;
13202;SDS011;6666;51.626;7.530;2023-02-15T03:09:14;13.90;;;7.40;;
13202;SDS011;6666;51.626;7.530;2023-02-15T03:11:49;14.30;;;7.20;;
13202;SDS011;6666;51.626;7.530;2023-02-15T03:14:21;14.20;;;7.40;;
13202;SDS011;6666;51.626;7.530;2023-02-15T03:16:49;16.90;;;7.40;;
13202;SDS011;6666;51.626;7.530;2023-02-15T03:19:21;14.67;;;7.77;;
13202;SDS011;6666;51.626;7.530;2023-02-15T03:21:54;12.10;;;6.70;;
13202;SDS011;6666;51.626;7.530;2023-02-15T03:24:32;15.38;;;7.25;;
13202;SDS011;6666;51.626;7.530;2023-02-15T03:27:06;14.75;;;7.57;;
13202;SDS011;6666;51.626;7.530;2023-02-15T03:29:38;12.60;;;7.23;;
13202;SDS011;6666;51.626;7.530;2023-02-15T03:32:08;14.07;;;6.85;;
13202;SDS011;6666;51.626;7.530;2023-02-15T03:34:39;13.63;;;6.45;;
13202;SDS011;6666;51.626;7.530;2023-02-15T03:37:10;14.57;;;7.10;;
13202;SDS011;6666;51.626;7.530;2023-02-15T03:39:51;14.95;;;7.20;;
13202;SDS011;6666;51.626;7.530;2023-02-15T03:42:44;15.13;;;7.30;;
13202;SDS011;6666;51.626;7.530;2023-02-15T03:45:18;13.88;;;7.18;;
13202;SDS011;6666;51.626;7.530;2023-02-15T03:47:53;12.98;;;7.28;;
13202;SDS011;6666;51.626;7.530;2023-02-15T03:50:24;13.07;;;7.20;;
13202;SDS011;6666;51.626;7.530;2023-02-15T03:53:17;12.68;;;7.53;;
13202;SDS011;6666;51.626;7.530;2023-02-15T03:55:48;15.40;;;7.63;;
13202;SDS011;6666;51.626;7.530;2023-02-15T03:58:20;16.52;;;7.68;;
13202;SDS011;6666;51.626;7.530;2023-02-15T04:01:18;14.55;;;8.38;;
13202;SDS011;6666;51.626;7.530;2023-02-15T04:04:11;16.83;;;8.20;;
13202;SDS011;6666;51.626;7.530;2023-02-15T04:06:45;15.68;;;7.70;;
13202;SDS011;6666;51.626;7.530;2023-02-15T04:09:15;15.33;;;8.10;;
13202;SDS011;6666;51.626;7.530;2023-02-15T04:12:01;14.53;;;7.50;;
13202;SDS011;6666;51.626;7.530;2023-02-15T04:14:29;13.43;;;8.23;;
13202;SDS011;6666;51.626;7.530;2023-02-15T04:17:11;14.50;;;7.45;;
13202;SDS011;6666;51.626;7.530;2023-02-15T04:19:40;13.77;;;8.18;;
13202;SDS011;6666;51.626;7.530;2023-02-15T04:22:25;17.58;;;8.93;;
13202;SDS011;6666;51.626;7.530;2023-02-15T04:25:12;15.23;;;8.80;;
13202;SDS011;6666;51.626;7.530;2023-02-15T04:27:41;19.08;;;8.50;;
13202;SDS011;6666;51.626;7.530;2023-02-15T04:30:12;17.80;;;8.85;;
13202;SDS011;6666;51.626;7.530;2023-02-15T04:32:41;16.63;;;8.20;;
13202;SDS011;6666;51.626;7.530;2023-02-15T04:35:10;14.75;;;8.27;;
13202;SDS011;6666;51.626;7.530;2023-02-15T04:37:39;16.43;;;8.90;;
13202;SDS011;6666;51.626;7.530;2023-02-15T04:40:08;15.73;;;8.10;;
13202;SDS011;6666;51.626;7.530;2023-02-15T04:42:39;15.70;;;8.15;;
13202;SDS011;6666;51.626;7.530;2023-02-15T04:45:07;17.52;;;8.65;;
13202;SDS011;6666;51.626;7.530;2023-02-15T04:47:36;18.33;;;8.65;;
13202;SDS011;6666;51.626;7.530;2023-02-15T04:50:05;14.25;;;8.20;;
13202;SDS011;6666;51.626;7.530;2023-02-15T04:52:34;16.95;;;8.80;;
13202;SDS011;6666;51.626;7.530;2023-02-15T04:55:02;17.20;;;8.45;;
13202;SDS011;6666;51.626;7.530;2023-02-15T04:57:31;16.17;;;8.60;;
13202;SDS011;6666;51.626;7.530;2023-02-15T05:00:00;16.83;;;8.65;;
13202;SDS011;6666;51.626;7.530;2023-02-15T05:02:29;16.77;;;8.60;;
13202;SDS011;6666;51.626;7.530;2023-02-15T05:04:57;14.30;;;8.45;;
13202;SDS011;6666;51.626;7.530;2023-02-15T05:07:25;15.68;;;8.48;;
13202;SDS011;6666;51.626;7.530;2023-02-15T05:09:54;14.45;;;8.02;;
13202;SDS011;6666;51.626;7.530;2023-02-15T05:12:22;18.83;;;8.32;;
13202;SDS011;6666;51.626;7.530;2023-02-15T05:14:50;19.70;;;8.77;;
13202;SDS011;6666;51.626;7.530;2023-02-15T05:17:20;17.97;;;8.40;;
13202;SDS011;6666;51.626;7.530;2023-02-15T05:19:48;14.93;;;8.52;;
13202;SDS011;6666;51.626;7.530;2023-02-15T05:22:16;22.38;;;8.00;;
13202;SDS011;6666;51.626;7.530;2023-02-15T05:24:45;17.52;;;8.65;;
13202;SDS011;6666;51.626;7.530;2023-02-15T05:27:30;14.60;;;7.57;;
13202;SDS011;6666;51.626;7.530;2023-02-15T05:30:16;14.45;;;8.05;;
13202;SDS011;6666;51.626;7.530;2023-02-15T05:32:46;14.93;;;9.00;;
13202;SDS011;6666;51.626;7.530;2023-02-15T05:35:15;15.70;;;8.60;;
13202;SDS011;6666;51.626;7.530;2023-02-15T05:37:44;14.50;;;8.50;;
13202;SDS011;6666;51.626;7.530;2023-02-15T05:40:12;16.58;;;8.70;;
13202;SDS011;6666;51.626;7.530;2023-02-15T05:42:40;18.98;;;9.30;;
13202;SDS011;6666;51.626;7.530;2023-02-15T05:45:09;16.15;;;8.07;;
13202;SDS011;6666;51.626;7.530;2023-02-15T05:47:37;17.42;;;9.48;;
13202;SDS011;6666;51.626;7.530;2023-02-15T05:50:07;15.43;;;8.48;;
13202;SDS011;6666;51.626;7.530;2023-02-15T05:52:36;17.00;;;8.55;;
13202;SDS011;6666;51.626;7.530;2023-02-15T05:55:05;15.63;;;8.70;;
13202;SDS011;6666;51.626;7.530;2023-02-15T05:57:35;20.30;;;9.23;;
13202;SDS011;6666;51.626;7.530;2023-02-15T06:00:03;17.10;;;9.10;;
13202;SDS011;6666;51.626;7.530;2023-02-15T06:02:38;16.80;;;9.05;;
13202;SDS011;6666;51.626;7.530;2023-02-15T06:05:08;19.00;;;8.80;;
13202;SDS011;6666;51.626;7.530;2023-02-15T06:07:36;16.90;;;9.15;;
13202;SDS011;6666;51.626;7.530;2023-02-15T06:10:05;18.48;;;8.90;;
13202;SDS011;6666;51.626;7.530;2023-02-15T06:12:34;16.45;;;8.88;;
13202;SDS011;6666;51.626;7.530;2023-02-15T06:15:02;20.30;;;8.25;;
13202;SDS011;6666;51.626;7.530;2023-02-15T06:17:31;18.20;;;8.90;;
13202;SDS011;6666;51.626;7.530;2023-02-15T06:20:00;20.17;;;8.43;;
13202;SDS011;6666;51.626;7.530;2023-02-15T06:22:29;14.50;;;8.80;;
13202;SDS011;6666;51.626;7.530;2023-02-15T06:24:57;14.55;;;8.68;;
13202;SDS011;6666;51.626;7.530;2023-02-15T06:27:26;17.77;;;8.90;;
13202;SDS011;6666;51.626;7.530;2023-02-15T06:29:54;17.20;;;8.80;;
13202;SDS011;6666;51.626;7.530;2023-02-15T06:32:23;17.60;;;8.93;;
13202;SDS011;6666;51.626;7.530;2023-02-15T06:34:51;18.58;;;9.23;;
13202;SDS011;6666;51.626;7.530;2023-02-15T06:37:19;20.38;;;8.70;;
13202;SDS011;6666;51.626;7.530;2023-02-15T06:39:49;14.88;;;8.48;;
13202;SDS011;6666;51.626;7.530;2023-02-15T06:42:17;18.17;;;8.70;;
13202;SDS011;6666;51.626;7.530;2023-02-15T06:44:45;18.15;;;9.50;;
13202;SDS011;6666;51.626;7.530;2023-02-15T06:47:14;16.77;;;9.35;;
13202;SDS011;6666;51.626;7.530;2023-02-15T06:49:42;16.17;;;8.10;;
13202;SDS011;6666;51.626;7.530;2023-02-15T06:52:10;17.60;;;8.95;;
13202;SDS011;6666;51.626;7.530;2023-02-15T06:54:40;17.52;;;8.98;;
13202;SDS011;6666;51.626;7.530;2023-02-15T06:57:09;18.10;;;8.70;;
13202;SDS011;6666;51.626;7.530;2023-02-15T06:59:38;16.35;;;7.75;;
13202;SDS011;6666;51.626;7.530;2023-02-15T07:02:06;19.50;;;9.27;;
13202;SDS011;6666;51.626;7.530;2023-02-15T07:04:35;18.13;;;9.27;;
13202;SDS011;6666;51.626;7.530;2023-02-15T07:07:03;18.00;;;9.27;;
13202;SDS011;6666;51.626;7.530;2023-02-15T07:09:35;19.13;;;10.27;;
13202;SDS011;6666;51.626;7.530;2023-02-15T07:12:03;19.13;;;9.80;;
13202;SDS011;6666;51.626;7.530;2023-02-15T07:14:51;22.63;;;10.10;;
13202;SDS011;6666;51.626;7.530;2023-02-15T07:17:19;18.67;;;9.90;;
13202;SDS011;6666;51.626;7.530;2023-02-15T07:20:05;20.17;;;10.63;;
13202;SDS011;6666;51.626;7.530;2023-02-15T07:22:36;21.38;;;10.75;;
13202;SDS011;6666;51.626;7.530;2023-02-15T07:25:05;22.35;;;11.40;;
13202;SDS011;6666;51.626;7.530;2023-02-15T07:27:35;22.05;;;11.25;;
13202;SDS011;6666;51.626;7.530;2023-02-15T07:30:07;21.17;;;10.90;;
13202;SDS011;6666;51.626;7.530;2023-02-15T07:32:37;23.47;;;10.97;;
13202;SDS011;6666;51.626;7.530;2023-02-15T07:35:30;19.02;;;10.07;;
13202;SDS011;6666;51.626;7.530;2023-02-15T07:37:58;18.60;;;9.80;;
13202;SDS011;6666;51.626;7.530;2023-02-15T07:40:27;19.50;;;10.43;;
13202;SDS011;6666;51.626;7.530;2023-02-15T07:42:57;22.85;;;10.15;;
13202;SDS011;6666;51.626;7.530;2023-02-15T07:45:27;20.70;;;11.07;;
13202;SDS011;6666;51.626;7.530;2023-02-15T07:47:55;19.10;;;9.50;;
13202;SDS011;6666;51.626;7.530;2023-02-15T07:50:24;17.90;;;9.85;;
13202;SDS011;6666;51.626;7.530;2023-02-15T07:52:52;18.85;;;10.05;;
13202;SDS011;6666;51.626;7.530;2023-02-15T07:55:20;20.90;;;10.27;;
13202;SDS011;6666;51.626;7.530;2023-02-15T07:57:49;18.87;;;9.67;;
13202;SDS011;6666;51.626;7.530;2023-02-15T08:00:20;20.80;;;10.40;;
13202;SDS011;6666;51.626;7.530;2023-02-15T08:02:53;20.13;;;9.95;;
13202;SDS011;6666;51.626;7.530;2023-02-15T08:05:41;25.02;;;10.10;;
13202;SDS011;6666;51.626;7.530;2023-02-15T08:08:11;26.52;;;11.10;;
13202;SDS011;6666;51.626;7.530;2023-02-15T08:10:59;17.73;;;9.60;;
13202;SDS011;6666;51.626;7.530;2023-02-15T08:13:46;22.52;;;10.52;;
13202;SDS011;6666;51.626;7.530;2023-02-15T08:16:23;21.40;;;11.60;;
13202;SDS011;6666;51.626;7.530;2023-02-15T08:18:53;20.80;;;11.02;;
13202;SDS011;6666;51.626;7.530;2023-02-15T08:21:23;23.25;;;11.75;;
13202;SDS011;6666;51.626;7.530;2023-02-15T08:23:53;24.27;;;11.80;;
13202;SDS011;6666;51.626;7.530;2023-02-15T08:26:22;23.87;;;10.77;;
13202;SDS011;6666;51.626;7.530;2023-02-15T08:28:50;24.63;;;11.65;;
13202;SDS011;6666;51.626;7.530;2023-02-15T08:31:19;23.80;;;12.75;;
13202;SDS011;6666;51.626;7.530;2023-02-15T08:33:49;23.73;;;12.00;;
13202;SDS011;6666;51.626;7.530;2023-02-15T08:36:20;24.27;;;12.43;;
13202;SDS011;6666;51.626;7.530;2023-02-15T08:38:50;25.35;;;12.18;;
13202;SDS011;6666;51.626;7.530;2023-02-15T08:41:19;25.10;;;11.90;;
13202;SDS011;6666;51.626;7.530;2023-02-15T08:43:49;23.33;;;12.35;;
13202;SDS011;6666;51.626;7.530;2023-02-15T08:46:18;23.95;;;12.00;;
13202;SDS011;6666;51.626;7.530;2023-02-15T08:48:48;23.55;;;12.52;;
13202;SDS011;6666;51.626;7.530;2023-02-15T08:51:17;23.52;;;12.00;;
13202;SDS011;6666;51.626;7.530;2023-02-15T08:53:49;23.70;;;12.30;;
13202;SDS011;6666;51.626;7.530;2023-02-15T08:56:20;20.77;;;11.48;;
13202;SDS011;6666;51.626;7.530;2023-02-15T08:58:49;27.70;;;13.27;;
13202;SDS011;6666;51.626;7.530;2023-02-15T09:01:18;25.92;;;12.80;;
13202;SDS011;6666;51.626;7.530;2023-02-15T09:03:49;22.73;;;12.48;;
13202;SDS011;6666;51.626;7.530;2023-02-15T09:06:21;22.83;;;12.00;;
13202;SDS011;6666;51.626;7.530;2023-02-15T09:08:50;23.48;;;12.38;;
13202;SDS011;6666;51.626;7.530;2023-02-15T09:11:19;25.13;;;11.68;;
13202;SDS011;6666;51.626;7.530;2023-02-15T09:13:51;24.52;;;12.85;;
13202;SDS011;6666;51.626;7.530;2023-02-15T09:16:22;23.40;;;13.10;;
13202;SDS011;6666;51.626;7.530;2023-02-15T09:18:51;23.20;;;12.18;;
13202;SDS011;6666;51.626;7.530;2023-02-15T09:21:22;28.00;;;12.30;;
13202;SDS011;6666;51.626;7.530;2023-02-15T09:23:52;25.10;;;11.70;;
13202;SDS011;6666;51.626;7.530;2023-02-15T09:26:24;25.50;;;11.90;;
13202;SDS011;6666;51.626;7.530;2023-02-15T09:28:53;24.50;;;12.73;;
13202;SDS011;6666;51.626;7.530;2023-02-15T09:31:24;24.55;;;12.25;;
13202;SDS011;6666;51.626;7.530;2023-02-15T09:33:54;25.38;;;13.20;;
13202;SDS011;6666;51.626;7.530;2023-02-15T09:36:26;23.95;;;12.82;;
13202;SDS011;6666;51.626;7.530;2023-02-15T09:38:56;25.42;;;12.45;;
13202;SDS011;6666;51.626;7.530;2023-02-15T09:41:46;21.73;;;11.98;;
13202;SDS011;6666;51.626;7.530;2023-02-15T09:44:40;24.92;;;12.70;;
13202;SDS011;6666;51.626;7.530;2023-02-15T09:47:27;26.40;;;11.57;;
13202;SDS011;6666;51.626;7.530;2023-02-15T09:50:07;26.45;;;11.80;;
13202;SDS011;6666;51.626;7.530;2023-02-15T09:52:48;23.60;;;12.18;;
13202;SDS011;6666;51.626;7.530;2023-02-15T09:55:38;22.08;;;11.48;;
13202;SDS011;6666;51.626;7.530;2023-02-15T09:58:14;22.10;;;11.35;;
13202;SDS011;6666;51.626;7.530;2023-02-15T10:00:52;24.70;;;12.13;;
13202;SDS011;6666;51.626;7.530;2023-02-15T10:03:33;23.05;;;11.45;;
13202;SDS011;6666;51.626;7.530;2023-02-15T10:06:27;24.13;;;11.35;;
13202;SDS011;6666;51.626;7.530;2023-02-15T10:09:12;25.57;;;12.40;;
13202;SDS011;6666;51.626;7.530;2023-02-15T10:12:01;24.65;;;11.32;;
13202;SDS011;6666;51.626;7.530;2023-02-15T10:17:51;22.88;;;11.50;;
13202;SDS011;6666;51.626;7.530;2023-02-15T10:20:31;24.70;;;11.57;;
13202;SDS011;6666;51.626;7.530;2023-02-15T10:23:14;20.90;;;11.55;;
13202;SDS011;6666;51.626;7.530;2023-02-15T10:25:56;23.10;;;11.70;;
13202;SDS011;6666;51.626;7.530;2023-02-15T10:28:35;26.30;;;12.02;;
13202;SDS011;6666;51.626;7.530;2023-02-15T10:31:11;20.90;;;11.00;;
13202;SDS011;6666;51.626;7.530;2023-02-15T10:33:48;26.00;;;11.07;;
13202;SDS011;6666;51.626;7.530;2023-02-15T10:36:30;20.17;;;11.32;;
13202;SDS011;6666;51.626;7.530;2023-02-15T10:39:13;26.02;;;12.40;;
13202;SDS011;6666;51.626;7.530;2023-02-15T10:41:50;23.35;;;11.88;;
13202;SDS011;6666;51.626;7.530;2023-02-15T10:44:31;24.98;;;12.10;;
13202;SDS011;6666;51.626;7.530;2023-02-15T10:47:12;21.38;;;11.48;;
13202;SDS011;6666;51.626;7.530;2023-02-15T10:50:01;24.48;;;11.77;;
13202;SDS011;6666;51.626;7.530;2023-02-15T10:52:39;24.70;;;12.40;;
13202;SDS011;6666;51.626;7.530;2023-02-15T10:55:23;25.90;;;13.23;;
13202;SDS011;6666;51.626;7.530;2023-02-15T10:58:02;26.47;;;13.03;;
13202;SDS011;6666;51.626;7.530;2023-02-15T11:00:41;31.95;;;13.57;;
13202;SDS011;6666;51.626;7.530;2023-02-15T11:03:18;24.33;;;12.40;;
13202;SDS011;6666;51.626;7.530;2023-02-15T11:05:59;21.92;;;11.38;;
13202;SDS011;6666;51.626;7.530;2023-02-15T11:08:32;24.85;;;12.60;;
13202;SDS011;6666;51.626;7.530;2023-02-15T11:11:05;27.58;;;13.07;;
13202;SDS011;6666;51.626;7.530;2023-02-15T11:13:38;23.98;;;12.10;;
13202;SDS011;6666;51.626;7.530;2023-02-15T11:16:11;27.50;;;12.63;;
13202;SDS011;6666;51.626;7.530;2023-02-15T11:18:45;24.95;;;11.57;;
13202;SDS011;6666;51.626;7.530;2023-02-15T11:21:19;27.60;;;12.48;;
13202;SDS011;6666;51.626;7.530;2023-02-15T11:23:50;28.40;;;13.30;;
13202;SDS011;6666;51.626;7.530;2023-02-15T11:26:20;29.23;;;14.80;;
13202;SDS011;6666;51.626;7.530;2023-02-15T11:28:57;27.63;;;13.60;;
13202;SDS011;6666;51.626;7.530;2023-02-15T11:31:32;28.38;;;12.95;;
13202;SDS011;6666;51.626;7.530;2023-02-15T11:34:11;31.02;;;13.48;;
13202;SDS011;6666;51.626;7.530;2023-02-15T11:36:46;30.15;;;13.20;;
13202;SDS011;6666;51.626;7.530;2023-02-15T11:39:17;27.67;;;13.73;;
13202;SDS011;6666;51.626;7.530;2023-02-15T11:41:49;34.10;;;14.05;;
13202;SDS011;6666;51.626;7.530;2023-02-15T11:44:22;32.08;;;13.80;;
13202;SDS011;6666;51.626;7.530;2023-02-15T11:46:55;24.65;;;12.73;;
13202;SDS011;6666;51.626;7.530;2023-02-15T11:49:25;35.53;;;14.23;;
13202;SDS011;6666;51.626;7.530;2023-02-15T11:51:57;27.30;;;13.48;;
13202;SDS011;6666;51.626;7.530;2023-02-15T11:54:28;31.50;;;14.05;;
13202;SDS011;6666;51.626;7.530;2023-02-15T11:56:59;29.20;;;13.55;;
13202;SDS011;6666;51.626;7.530;2023-02-15T11:59:39;28.08;;;13.30;;
13202;SDS011;6666;51.626;7.530;2023-02-15T12:02:14;25.00;;;12.10;;
13202;SDS011;6666;51.626;7.530;2023-02-15T12:04:46;26.48;;;11.88;;
13202;SDS011;6666;51.626;7.530;2023-02-15T12:07:20;24.92;;;9.93;;
13202;SDS011;6666;51.626;7.530;2023-02-15T12:09:52;20.45;;;9.55;;
13202;SDS011;6666;51.626;7.530;2023-02-15T12:12:27;24.08;;;11.07;;
13202;SDS011;6666;51.626;7.530;2023-02-15T12:14:59;19.85;;;10.18;;
13202;SDS011;6666;51.626;7.530;2023-02-15T12:17:28;22.75;;;9.43;;
13202;SDS011;6666;51.626;7.530;2023-02-15T12:20:00;23.17;;;9.38;;
13202;SDS011;6666;51.626;7.530;2023-02-15T12:22:32;18.60;;;8.55;;
13202;SDS011;6666;51.626;7.530;2023-02-15T12:25:04;19.65;;;8.85;;
13202;SDS011;6666;51.626;7.530;2023-02-15T12:27:48;20.00;;;8.60;;
13202;SDS011;6666;51.626;7.530;2023-02-15T12:30:20;15.80;;;7.65;;
13202;SDS011;6666;51.626;7.530;2023-02-15T12:32:53;17.58;;;7.10;;
13202;SDS011;6666;51.626;7.530;2023-02-15T12:35:26;17.50;;;6.63;;
13202;SDS011;6666;51.626;7.530;2023-02-15T12:37:57;14.80;;;6.65;;
13202;SDS011;6666;51.626;7.530;2023-02-15T12:40:30;15.07;;;6.32;;
13202;SDS011;6666;51.626;7.530;2023-02-15T12:42:59;15.23;;;6.57;;
13202;SDS011;6666;51.626;7.530;2023-02-15T12:45:36;14.63;;;6.22;;
13202;SDS011;6666;51.626;7.530;2023-02-15T12:48:09;11.57;;;6.03;;
13202;SDS011;6666;51.626;7.530;2023-02-15T12:50:45;13.65;;;5.97;;
13202;SDS011;6666;51.626;7.530;2023-02-15T12:53:21;13.80;;;6.50;;
13202;SDS011;6666;51.626;7.530;2023-02-15T12:55:51;14.30;;;6.20;;
13202;SDS011;6666;51.626;7.530;2023-02-15T12:58:22;14.40;;;6.30;;
13202;SDS011;6666;51.626;7.530;2023-02-15T13:01:03;11.00;;;5.80;;
13202;SDS011;6666;51.626;7.530;2023-02-15T13:03:39;13.13;;;6.28;;
13202;SDS011;6666;51.626;7.530;2023-02-15T13:06:26;14.77;;;5.88;;
13202;SDS011;6666;51.626;7.530;2023-02-15T13:08:56;11.57;;;6.00;;
13202;SDS011;6666;51.626;7.530;2023-02-15T13:11:28;15.68;;;6.60;;
13202;SDS011;6666;51.626;7.530;2023-02-15T13:14:01;11.27;;;6.35;;
13202;SDS011;6666;51.626;7.530;2023-02-15T13:16:33;13.82;;;6.10;;
13202;SDS011;6666;51.626;7.530;2023-02-15T13:19:04;12.90;;;5.35;;
13202;SDS011;6666;51.626;7.530;2023-02-15T13:21:39;13.25;;;5.70;;
13202;SDS011;6666;51.626;7.530;2023-02-15T13:24:15;12.00;;;5.78;;
13202;SDS011;6666;51.626;7.530;2023-02-15T13:26:46;10.77;;;5.40;;
13202;SDS011;6666;51.626;7.530;2023-02-15T13:29:17;14.30;;;5.75;;
13202;SDS011;6666;51.626;7.530;2023-02-15T13:31:50;12.27;;;5.80;;
13202;SDS011;6666;51.626;7.530;2023-02-15T13:34:22;12.67;;;5.80;;
13202;SDS011;6666;51.626;7.530;2023-02-15T13:36:54;10.82;;;5.10;;
13202;SDS011;6666;51.626;7.530;2023-02-15T13:39:31;11.00;;;5.70;;
13202;SDS011;6666;51.626;7.530;2023-02-15T13:42:13;13.80;;;5.40;;
13202;SDS011;6666;51.626;7.530;2023-02-15T13:45:02;14.32;;;5.88;;
13202;SDS011;6666;51.626;7.530;2023-02-15T13:47:49;11.18;;;5.53;;
13202;SDS011;6666;51.626;7.530;2023-02-15T13:50:31;15.20;;;6.32;;
13202;SDS011;6666;51.626;7.530;2023-02-15T13:53:16;9.70;;;5.30;;
13202;SDS011;6666;51.626;7.530;2023-02-15T13:55:54;13.10;;;5.40;;
13202;SDS011;6666;51.626;7.530;2023-02-15T13:58:41;10.00;;;5.47;;
13202;SDS011;6666;51.626;7.530;2023-02-15T14:01:28;11.60;;;5.90;;
13202;SDS011;6666;51.626;7.530;2023-02-15T14:07:20;14.85;;;5.90;;
13202;SDS011;6666;51.626;7.530;2023-02-15T14:10:03;13.32;;;5.78;;
13202;SDS011;6666;51.626;7.530;2023-02-15T14:16:08;12.18;;;6.30;;
13202;SDS011;6666;51.626;7.530;2023-02-15T14:18:43;14.13;;;6.20;;
13202;SDS011;6666;51.626;7.530;2023-02-15T14:21:17;18.85;;;8.85;;
13202;SDS011;6666;51.626;7.530;2023-02-15T14:23:56;19.67;;;8.45;;
13202;SDS011;6666;51.626;7.530;2023-02-15T14:26:38;19.60;;;8.77;;
13202;SDS011;6666;51.626;7.530;2023-02-15T14:29:16;13.85;;;6.15;;
13202;SDS011;6666;51.626;7.530;2023-02-15T14:31:52;15.67;;;7.60;;
13202;SDS011;6666;51.626;7.530;2023-02-15T14:34:24;15.73;;;7.15;;
13202;SDS011;6666;51.626;7.530;2023-02-15T14:36:58;14.80;;;6.97;;
13202;SDS011;6666;51.626;7.530;2023-02-15T14:39:31;15.57;;;6.47;;
13202;SDS011;6666;51.626;7.530;2023-02-15T14:42:28;14.32;;;6.70;;
13202;SDS011;6666;51.626;7.530;2023-02-15T14:45:05;16.33;;;6.90;;
13202;SDS011;6666;51.626;7.530;2023-02-15T14:47:45;14.98;;;6.05;;
13202;SDS011;6666;51.626;7.530;2023-02-15T14:53:24;14.90;;;5.70;;
13202;SDS011;6666;51.626;7.530;2023-02-15T14:56:12;12.27;;;5.45;;
13202;SDS011;6666;51.626;7.530;2023-02-15T15:01:51;12.00;;;5.15;;
13202;SDS011;6666;51.626;7.530;2023-02-15T15:04:25;9.48;;;4.75;;
13202;SDS011;6666;51.626;7.530;2023-02-15T15:07:00;10.30;;;4.47;;
13202;SDS011;6666;51.626;7.530;2023-02-15T15:09:36;11.25;;;4.90;;
13202;SDS011;6666;51.626;7.530;2023-02-15T15:12:14;7.93;;;4.05;;
13202;SDS011;6666;51.626;7.530;2023-02-15T15:14:58;14.15;;;5.43;;
13202;SDS011;6666;51.626;7.530;2023-02-15T15:20:45;14.05;;;5.50;;
13202;SDS011;6666;51.626;7.530;2023-02-15T15:23:38;12.32;;;4.70;;
13202;SDS011;6666;51.626;7.530;2023-02-15T15:26:28;11.07;;;5.07;;
13202;SDS011;6666;51.626;7.530;2023-02-15T15:29:01;11.77;;;5.40;;
13202;SDS011;6666;51.626;7.530;2023-02-15T15:31:34;12.48;;;5.32;;
13202;SDS011;6666;51.626;7.530;2023-02-15T15:34:21;10.60;;;4.78;;
13202;SDS011;6666;51.626;7.530;2023-02-15T15:46:37;11.77;;;5.47;;
13202;SDS011;6666;51.626;7.530;2023-02-15T15:49:28;10.75;;;5.25;;
13202;SDS011;6666;51.626;7.530;2023-02-15T15:52:01;11.85;;;5.25;;
13202;SDS011;6666;51.626;7.530;2023-02-15T15:54:29;11.70;;;5.30;;
13202;SDS011;6666;51.626;7.530;2023-02-15T15:56:59;12.25;;;5.40;;
13202;SDS011;6666;51.626;7.530;2023-02-15T15:59:31;12.75;;;5.03;;
13202;SDS011;6666;51.626;7.530;2023-02-15T16:02:05;12.90;;;6.30;;